Time;durP1;ratioP1;P1;durP2;ratioP2;P2;SDS_P1;SDS_P2;PMS_P1;PMS_P2;Temp;Humidity;BMP_temperature;BMP_pressure;BME280_temperature;BME280_humidity;BME280_pressure;Samples;Min_cycle;Max_cycle;Signal;HPM_P1;HPM_P2
2023/07/23 00:01:28;;;;;;;6.60;3.53;;;;;;;;;;5063469;28;20891;-80
2023/07/23 00:03:55;;;;;;;4.43;3.40;;;;;;;;;;5051727;28;20189;-80
2023/07/23 00:06:21;;;;;;;4.07;3.43;;;;;;;;;;5045347;28;20293;-80
2023/07/23 00:08:47;;;;;;;3.83;3.43;;;;;;;;;;5021100;28;20232;-80
2023/07/23 00:11:13;;;;;;;5.00;3.60;;;;;;;;;;5052020;28;20185;-80
2023/07/23 00:13:39;;;;;;;3.80;3.37;;;;;;;;;;5034496;28;20197;-80
2023/07/23 00:16:06;;;;;;;3.67;3.17;;;;;;;;;;5056480;28;20182;-80
2023/07/23 00:18:32;;;;;;;3.87;3.47;;;;;;;;;;5047418;28;20565;-80
2023/07/23 00:20:58;;;;;;;4.20;3.37;;;;;;;;;;5053370;28;20747;-80
2023/07/23 00:23:24;;;;;;;5.67;3.30;;;;;;;;;;5035920;28;20186;-80
2023/07/23 00:25:50;;;;;;;4.43;3.43;;;;;;;;;;5041243;28;20676;-80
2023/07/23 00:28:16;;;;;;;5.63;3.10;;;;;;;;;;5054499;28;20190;-80
2023/07/23 00:30:43;;;;;;;3.50;3.20;;;;;;;;;;5060384;28;20186;-80
2023/07/23 00:33:09;;;;;;;3.83;3.30;;;;;;;;;;5067037;28;20178;-80
2023/07/23 00:35:35;;;;;;;4.80;3.50;;;;;;;;;;5033905;28;20188;-80
2023/07/23 00:38:01;;;;;;;4.07;3.67;;;;;;;;;;5046213;28;20638;-82
2023/07/23 00:40:27;;;;;;;3.80;3.40;;;;;;;;;;5033431;28;20267;-80
2023/07/23 00:42:53;;;;;;;4.80;3.50;;;;;;;;;;5044779;28;20198;-80
2023/07/23 00:45:19;;;;;;;5.47;3.27;;;;;;;;;;5037520;28;20217;-79
2023/07/23 00:47:46;;;;;;;3.50;3.20;;;;;;;;;;5026803;28;20697;-80
2023/07/23 00:50:13;;;;;;;5.27;3.20;;;;;;;;;;5035103;28;20233;-80
2023/07/23 00:52:39;;;;;;;4.93;3.80;;;;;;;;;;5051763;28;20193;-80
2023/07/23 00:55:06;;;;;;;3.93;3.40;;;;;;;;;;5038174;28;20260;-80
2023/07/23 00:57:32;;;;;;;3.67;3.37;;;;;;;;;;5037911;28;20758;-79
2023/07/23 00:59:58;;;;;;;3.87;3.20;;;;;;;;;;5045143;28;20245;-80
2023/07/23 01:02:27;;;;;;;4.17;3.50;;;;;;;;;;5062431;28;20193;-80
2023/07/23 01:04:55;;;;;;;3.50;3.20;;;;;;;;;;5035115;28;20190;-80
2023/07/23 01:07:22;;;;;;;6.33;3.40;;;;;;;;;;5049805;28;20185;-80
2023/07/23 01:09:49;;;;;;;4.13;3.50;;;;;;;;;;5029153;28;20217;-81
2023/07/23 01:12:17;;;;;;;4.53;3.50;;;;;;;;;;5052746;28;20170;-80
2023/07/23 01:14:43;;;;;;;3.20;2.90;;;;;;;;;;5039486;28;20182;-79
2023/07/23 01:17:11;;;;;;;5.33;3.30;;;;;;;;;;5014786;28;20189;-79
2023/07/23 01:19:37;;;;;;;3.70;3.30;;;;;;;;;;5059429;28;20269;-80
2023/07/23 01:22:07;;;;;;;3.50;3.20;;;;;;;;;;5027024;28;20197;-80
2023/07/23 01:24:35;;;;;;;3.47;3.17;;;;;;;;;;5034775;28;20625;-80
2023/07/23 01:27:02;;;;;;;4.27;3.40;;;;;;;;;;5032516;28;20740;-80
2023/07/23 01:29:28;;;;;;;4.23;3.50;;;;;;;;;;5043155;28;20216;-79
2023/07/23 01:31:54;;;;;;;5.93;3.43;;;;;;;;;;5040493;28;20193;-79
2023/07/23 01:34:22;;;;;;;3.90;3.50;;;;;;;;;;5048214;28;20185;-80
2023/07/23 01:36:48;;;;;;;6.20;3.80;;;;;;;;;;5051309;28;20217;-79
2023/07/23 01:39:14;;;;;;;6.07;3.73;;;;;;;;;;5053395;28;20494;-80
2023/07/23 01:41:40;;;;;;;4.80;3.60;;;;;;;;;;5035619;28;20194;-79
2023/07/23 01:44:07;;;;;;;4.03;3.63;;;;;;;;;;5035915;28;20633;-79
2023/07/23 01:46:33;;;;;;;4.10;3.43;;;;;;;;;;5037799;28;20206;-79
2023/07/23 01:48:59;;;;;;;6.17;3.70;;;;;;;;;;5018923;28;20233;-80
2023/07/23 01:51:25;;;;;;;3.90;3.50;;;;;;;;;;5040167;28;20235;-80
2023/07/23 01:53:52;;;;;;;4.87;3.50;;;;;;;;;;5033916;28;20193;-80
2023/07/23 01:56:18;;;;;;;4.27;3.67;;;;;;;;;;4997881;28;20665;-80
2023/07/23 01:58:44;;;;;;;5.17;3.67;;;;;;;;;;5016565;28;20692;-80
2023/07/23 02:01:10;;;;;;;7.67;4.00;;;;;;;;;;5036389;28;20249;-79
2023/07/23 02:03:37;;;;;;;4.10;3.20;;;;;;;;;;5025740;28;20194;-80
2023/07/23 02:06:03;;;;;;;5.00;3.50;;;;;;;;;;5025926;28;20624;-80
2023/07/23 02:08:30;;;;;;;4.17;3.77;;;;;;;;;;5036191;28;20174;-80
2023/07/23 02:11:03;;;;;;;4.00;3.30;;;;;;;;;;5028615;28;20601;-80
2023/07/23 02:13:29;;;;;;;7.47;3.57;;;;;;;;;;5053480;28;20673;-79
2023/07/23 02:15:55;;;;;;;4.37;3.57;;;;;;;;;;5001700;28;20185;-80
2023/07/23 02:18:22;;;;;;;4.17;3.50;;;;;;;;;;5034308;28;20181;-80
2023/07/23 02:20:48;;;;;;;5.00;3.40;;;;;;;;;;5031675;28;20194;-80
2023/07/23 02:23:16;;;;;;;4.87;3.40;;;;;;;;;;5021281;28;20198;-80
2023/07/23 02:25:42;;;;;;;4.67;3.37;;;;;;;;;;5030556;28;20217;-80
2023/07/23 02:28:10;;;;;;;3.60;3.03;;;;;;;;;;5042284;28;20178;-80
2023/07/23 02:30:36;;;;;;;3.97;3.33;;;;;;;;;;5046123;28;20216;-81
2023/07/23 02:33:03;;;;;;;3.77;3.47;;;;;;;;;;5048725;28;20178;-80
2023/07/23 02:35:29;;;;;;;4.70;3.40;;;;;;;;;;5040786;28;20201;-80
2023/07/23 02:37:55;;;;;;;5.73;3.67;;;;;;;;;;5036882;28;20217;-80
2023/07/23 02:40:21;;;;;;;5.07;3.63;;;;;;;;;;5036101;28;20288;-79
2023/07/23 02:42:50;;;;;;;5.03;3.40;;;;;;;;;;5058735;28;20190;-80
2023/07/23 02:45:17;;;;;;;3.83;3.40;;;;;;;;;;5046692;28;20213;-80
2023/07/23 02:47:44;;;;;;;4.03;3.37;;;;;;;;;;5057946;28;20182;-80
2023/07/23 02:50:10;;;;;;;4.27;3.40;;;;;;;;;;5047518;28;20296;-80
2023/07/23 02:52:36;;;;;;;5.57;3.63;;;;;;;;;;5049735;28;20185;-80
2023/07/23 02:55:02;;;;;;;3.80;3.50;;;;;;;;;;5051508;28;20196;-80
2023/07/23 02:57:29;;;;;;;5.23;3.70;;;;;;;;;;5055563;28;20178;-80
2023/07/23 02:59:55;;;;;;;4.70;3.77;;;;;;;;;;5040225;28;20198;-79
2023/07/23 03:02:21;;;;;;;4.10;3.70;;;;;;;;;;5028064;28;20594;-79
2023/07/23 03:04:47;;;;;;;4.57;3.70;;;;;;;;;;5042413;28;20174;-79
2023/07/23 03:07:13;;;;;;;4.87;3.57;;;;;;;;;;5029592;28;20182;-79
2023/07/23 03:09:39;;;;;;;4.63;4.00;;;;;;;;;;5040587;28;20224;-79
2023/07/23 03:12:06;;;;;;;4.17;3.77;;;;;;;;;;5045086;28;20653;-80
2023/07/23 03:14:32;;;;;;;4.23;3.43;;;;;;;;;;5055267;28;20185;-80
2023/07/23 03:16:59;;;;;;;5.50;3.90;;;;;;;;;;5025981;28;20336;-79
2023/07/23 03:19:25;;;;;;;4.27;3.67;;;;;;;;;;5054116;28;20735;-80
2023/07/23 03:21:51;;;;;;;3.67;3.33;;;;;;;;;;4999849;28;20272;-79
2023/07/23 03:24:17;;;;;;;8.27;3.70;;;;;;;;;;5060672;28;20186;-79
2023/07/23 03:26:43;;;;;;;4.40;3.80;;;;;;;;;;5029694;28;20214;-79
2023/07/23 03:29:09;;;;;;;4.30;3.80;;;;;;;;;;5054199;28;20208;-79
2023/07/23 03:31:36;;;;;;;5.03;3.77;;;;;;;;;;5023376;28;20231;-79
2023/07/23 03:34:02;;;;;;;5.40;3.60;;;;;;;;;;5041091;28;20193;-80
2023/07/23 03:36:28;;;;;;;4.20;3.63;;;;;;;;;;5020332;28;20232;-79
2023/07/23 03:38:54;;;;;;;4.30;3.90;;;;;;;;;;5068091;28;20213;-80
2023/07/23 03:41:20;;;;;;;4.90;3.40;;;;;;;;;;5030164;28;20688;-80
2023/07/23 03:43:47;;;;;;;5.53;3.70;;;;;;;;;;5058795;28;20660;-80
2023/07/23 03:46:13;;;;;;;4.50;3.57;;;;;;;;;;5047062;28;20267;-80
2023/07/23 03:48:40;;;;;;;4.90;3.80;;;;;;;;;;5029354;28;20206;-80
2023/07/23 03:51:06;;;;;;;5.33;3.60;;;;;;;;;;5040358;28;20224;-80
2023/07/23 03:53:32;;;;;;;5.60;3.70;;;;;;;;;;5035001;28;20375;-80
2023/07/23 03:55:59;;;;;;;4.53;3.43;;;;;;;;;;5037067;28;20242;-80
2023/07/23 03:58:25;;;;;;;5.00;3.90;;;;;;;;;;5034033;28;20236;-80
2023/07/23 04:00:51;;;;;;;6.30;3.80;;;;;;;;;;5021791;28;20193;-80
2023/07/23 04:03:17;;;;;;;5.63;3.90;;;;;;;;;;5039991;28;20322;-80
2023/07/23 04:05:43;;;;;;;5.53;4.60;;;;;;;;;;5063439;28;20254;-80
2023/07/23 04:08:09;;;;;;;5.70;4.50;;;;;;;;;;5039625;28;20692;-80
2023/07/23 04:10:36;;;;;;;9.17;5.40;;;;;;;;;;5015197;28;20209;-80
2023/07/23 04:13:03;;;;;;;9.47;7.47;;;;;;;;;;5060633;28;20617;-80
2023/07/23 04:15:31;;;;;;;9.60;7.80;;;;;;;;;;5059036;28;20185;-80
2023/07/23 04:17:57;;;;;;;12.60;8.77;;;;;;;;;;5058676;28;20186;-80
2023/07/23 04:20:23;;;;;;;14.37;10.60;;;;;;;;;;5043573;28;20228;-80
2023/07/23 04:22:49;;;;;;;16.93;11.60;;;;;;;;;;5031348;28;20220;-80
2023/07/23 04:25:15;;;;;;;18.53;12.17;;;;;;;;;;5046763;28;20724;-79
2023/07/23 04:27:42;;;;;;;17.73;11.23;;;;;;;;;;5057826;28;20420;-79
2023/07/23 04:30:09;;;;;;;17.03;11.17;;;;;;;;;;5041385;28;20205;-80
2023/07/23 04:32:35;;;;;;;13.70;9.47;;;;;;;;;;5055616;28;20181;-80
2023/07/23 04:35:01;;;;;;;10.47;8.00;;;;;;;;;;5040912;28;20186;-80
2023/07/23 04:37:28;;;;;;;8.97;6.50;;;;;;;;;;5016917;28;20235;-80
2023/07/23 04:39:54;;;;;;;7.00;4.00;;;;;;;;;;5046738;28;20212;-79
2023/07/23 04:42:20;;;;;;;5.33;3.70;;;;;;;;;;5052669;28;20178;-80
2023/07/23 04:44:46;;;;;;;3.80;3.40;;;;;;;;;;5040989;28;20213;-79
2023/07/23 04:47:12;;;;;;;4.40;3.53;;;;;;;;;;5043645;28;20221;-80
2023/07/23 04:49:38;;;;;;;3.90;3.10;;;;;;;;;;5050998;22;20237;-73
2023/07/23 04:52:05;;;;;;;6.97;3.17;;;;;;;;;;5029757;28;20207;-74
2023/07/23 04:54:31;;;;;;;5.77;3.10;;;;;;;;;;5030476;28;20266;-74
2023/07/23 04:56:57;;;;;;;3.93;3.23;;;;;;;;;;5027947;28;20313;-74
2023/07/23 04:59:23;;;;;;;4.60;3.50;;;;;;;;;;5028606;28;20225;-74
2023/07/23 05:01:49;;;;;;;5.17;3.43;;;;;;;;;;5024027;28;20654;-74
2023/07/23 05:04:15;;;;;;;3.40;3.10;;;;;;;;;;5027756;28;20190;-74
2023/07/23 05:06:41;;;;;;;5.23;3.27;;;;;;;;;;5015960;28;20227;-73
2023/07/23 05:09:07;;;;;;;5.50;3.47;;;;;;;;;;5020544;28;20238;-73
2023/07/23 05:11:34;;;;;;;3.67;3.23;;;;;;;;;;5017809;28;20179;-73
2023/07/23 05:14:00;;;;;;;3.53;3.23;;;;;;;;;;5023593;28;20191;-73
2023/07/23 05:16:26;;;;;;;3.73;3.30;;;;;;;;;;5017636;28;20182;-74
2023/07/23 05:18:52;;;;;;;5.07;3.50;;;;;;;;;;5018790;28;20580;-73
2023/07/23 05:21:18;;;;;;;4.63;3.40;;;;;;;;;;5027270;28;20210;-74
2023/07/23 05:23:44;;;;;;;4.80;3.30;;;;;;;;;;5025058;28;20178;-74
2023/07/23 05:26:10;;;;;;;4.73;3.60;;;;;;;;;;5022279;28;20304;-73
2023/07/23 05:28:37;;;;;;;3.50;3.20;;;;;;;;;;5026940;28;20245;-75
2023/07/23 05:31:03;;;;;;;3.70;3.30;;;;;;;;;;5023895;28;20194;-75
2023/07/23 05:33:30;;;;;;;4.87;3.63;;;;;;;;;;5026663;28;20236;-74
2023/07/23 05:35:56;;;;;;;3.50;3.20;;;;;;;;;;5027658;28;20190;-75
2023/07/23 05:38:22;;;;;;;3.50;3.20;;;;;;;;;;5022526;28;20555;-72
2023/07/23 05:40:55;;;;;;;5.33;3.27;;;;;;;;;;5029763;28;20263;-73
2023/07/23 05:43:21;;;;;;;4.07;3.20;;;;;;;;;;5025980;28;20186;-76
2023/07/23 05:45:47;;;;;;;5.83;3.70;;;;;;;;;;5025212;28;20202;-73
2023/07/23 05:48:14;;;;;;;6.03;3.63;;;;;;;;;;5028428;28;20182;-73
2023/07/23 05:50:40;;;;;;;4.67;3.53;;;;;;;;;;5022525;28;20210;-73
2023/07/23 05:53:06;;;;;;;5.00;3.33;;;;;;;;;;5025195;28;20183;-73
2023/07/23 05:55:32;;;;;;;4.20;3.50;;;;;;;;;;5026175;28;20185;-73
2023/07/23 05:57:58;;;;;;;3.90;3.27;;;;;;;;;;5031799;28;20553;-73
2023/07/23 06:00:24;;;;;;;4.00;3.10;;;;;;;;;;5028277;28;20304;-73
2023/07/23 06:02:51;;;;;;;3.30;3.00;;;;;;;;;;5030714;28;20190;-73
2023/07/23 06:05:17;;;;;;;5.43;3.40;;;;;;;;;;5024017;28;20206;-73
2023/07/23 06:07:43;;;;;;;4.37;3.53;;;;;;;;;;5029347;28;20186;-75
2023/07/23 06:10:10;;;;;;;4.33;3.37;;;;;;;;;;5030450;28;20673;-74
2023/07/23 06:12:36;;;;;;;3.47;3.17;;;;;;;;;;5029375;28;20182;-73
2023/07/23 06:15:02;;;;;;;3.40;3.10;;;;;;;;;;5027183;28;20179;-74
2023/07/23 06:17:28;;;;;;;4.63;2.87;;;;;;;;;;5030979;28;20253;-73
2023/07/23 06:19:55;;;;;;;4.13;3.03;;;;;;;;;;5027967;28;20293;-73
2023/07/23 06:22:21;;;;;;;3.67;3.20;;;;;;;;;;5026564;28;20181;-73
2023/07/23 06:24:47;;;;;;;4.17;2.83;;;;;;;;;;5028348;28;20549;-72
2023/07/23 06:27:13;;;;;;;4.37;3.00;;;;;;;;;;5029476;28;20202;-72
2023/07/23 06:29:39;;;;;;;3.87;2.90;;;;;;;;;;5024508;28;20226;-72
2023/07/23 06:32:05;;;;;;;3.97;3.07;;;;;;;;;;5015641;28;20201;-73
2023/07/23 06:34:32;;;;;;;3.67;3.20;;;;;;;;;;5024937;28;20191;-72
2023/07/23 06:36:58;;;;;;;3.30;2.60;;;;;;;;;;5022094;28;20202;-75
2023/07/23 06:39:24;;;;;;;3.53;2.70;;;;;;;;;;5023562;28;20597;-77
2023/07/23 06:41:50;;;;;;;5.07;3.10;;;;;;;;;;5025825;28;20189;-73
2023/07/23 06:44:17;;;;;;;3.00;2.70;;;;;;;;;;5024234;28;20194;-73
2023/07/23 06:46:43;;;;;;;3.27;2.90;;;;;;;;;;5028435;28;20210;-73
2023/07/23 06:49:12;;;;;;;4.13;3.00;;;;;;;;;;5026418;28;20625;-73
2023/07/23 06:51:39;;;;;;;3.87;3.10;;;;;;;;;;5025697;28;20270;-74
2023/07/23 06:54:05;;;;;;;5.03;3.00;;;;;;;;;;5024031;28;20248;-77
2023/07/23 06:56:31;;;;;;;2.60;2.30;;;;;;;;;;5022447;28;20209;-75
2023/07/23 06:58:57;;;;;;;2.80;2.50;;;;;;;;;;5024176;28;20211;-75
2023/07/23 07:01:24;;;;;;;3.40;2.73;;;;;;;;;;5026947;28;20217;-77
2023/07/23 07:03:50;;;;;;;3.57;2.93;;;;;;;;;;5029264;28;20190;-77
2023/07/23 07:06:17;;;;;;;3.33;2.70;;;;;;;;;;5023924;28;20612;-77
2023/07/23 07:08:44;;;;;;;3.27;2.90;;;;;;;;;;5023714;28;20226;-77
2023/07/23 07:11:10;;;;;;;2.80;2.50;;;;;;;;;;5030188;28;20209;-77
2023/07/23 07:13:37;;;;;;;3.47;2.60;;;;;;;;;;5026136;28;20249;-78
2023/07/23 07:16:03;;;;;;;2.90;2.60;;;;;;;;;;5026633;28;20191;-79
2023/07/23 07:18:29;;;;;;;3.37;2.90;;;;;;;;;;5027577;28;20187;-78
2023/07/23 07:20:58;;;;;;;3.17;2.50;;;;;;;;;;5024389;28;20197;-77
2023/07/23 07:23:25;;;;;;;3.97;2.40;;;;;;;;;;5027121;28;20793;-77
2023/07/23 07:25:51;;;;;;;3.00;2.43;;;;;;;;;;5007647;28;20301;-77
2023/07/23 07:28:17;;;;;;;2.57;2.37;;;;;;;;;;5023435;28;20265;-77
2023/07/23 07:30:43;;;;;;;3.30;2.47;;;;;;;;;;5025736;28;20183;-77
2023/07/23 07:33:09;;;;;;;2.70;2.50;;;;;;;;;;5025837;28;20190;-77
2023/07/23 07:35:35;;;;;;;2.50;2.30;;;;;;;;;;5024140;28;20193;-77
2023/07/23 07:38:02;;;;;;;3.93;2.37;;;;;;;;;;5026533;28;20333;-76
2023/07/23 07:40:28;;;;;;;3.47;2.37;;;;;;;;;;5026210;28;20218;-77
2023/07/23 07:42:54;;;;;;;3.07;2.40;;;;;;;;;;5023560;28;20723;-76
2023/07/23 07:45:21;;;;;;;2.40;2.20;;;;;;;;;;5026936;28;20308;-76
2023/07/23 07:47:47;;;;;;;3.13;2.40;;;;;;;;;;5025992;28;20175;-79
2023/07/23 07:50:13;;;;;;;2.33;2.13;;;;;;;;;;5021933;28;20740;-79
2023/07/23 07:52:39;;;;;;;5.70;2.37;;;;;;;;;;5028499;28;20221;-79
2023/07/23 07:55:05;;;;;;;2.40;2.20;;;;;;;;;;5027555;28;20191;-78
2023/07/23 07:57:32;;;;;;;3.00;2.10;;;;;;;;;;5025937;28;20178;-76
2023/07/23 08:00:01;;;;;;;2.70;2.17;;;;;;;;;;5022381;28;20198;-77
2023/07/23 08:02:36;;;;;;;2.87;1.83;;;;;;;;;;5023365;28;20178;-76
2023/07/23 08:05:03;;;;;;;1.93;1.63;;;;;;;;;;5026368;28;20245;-76
2023/07/23 08:07:30;;;;;;;2.60;2.20;;;;;;;;;;5027413;28;20181;-76
2023/07/23 08:09:59;;;;;;;2.57;1.90;;;;;;;;;;5022494;28;20203;-76
2023/07/23 08:12:25;;;;;;;2.10;1.90;;;;;;;;;;5027162;28;20175;-78
2023/07/23 08:14:52;;;;;;;2.67;1.80;;;;;;;;;;5023998;28;20654;-77
2023/07/23 08:17:18;;;;;;;2.43;1.90;;;;;;;;;;5028398;28;20189;-76
2023/07/23 08:19:44;;;;;;;3.10;1.90;;;;;;;;;;5019239;28;20211;-77
2023/07/23 08:22:11;;;;;;;2.70;1.80;;;;;;;;;;5020960;28;20856;-76
2023/07/23 08:24:37;;;;;;;2.00;1.80;;;;;;;;;;5023671;28;20217;-79
2023/07/23 08:27:04;;;;;;;2.23;1.70;;;;;;;;;;5024241;28;20293;-79
2023/07/23 08:29:30;;;;;;;4.93;1.87;;;;;;;;;;5025742;28;20336;-78
2023/07/23 08:31:57;;;;;;;5.70;1.80;;;;;;;;;;5029294;28;20239;-76
2023/07/23 08:34:25;;;;;;;2.07;1.53;;;;;;;;;;5026298;28;20190;-77
2023/07/23 08:36:51;;;;;;;4.03;1.43;;;;;;;;;;5024620;28;20194;-76
2023/07/23 08:39:18;;;;;;;2.63;1.57;;;;;;;;;;5021385;28;20306;-80
2023/07/23 08:42:00;;;;;;;5.13;1.60;;;;;;;;;;5022709;28;20593;-78
2023/07/23 08:44:35;;;;;;;1.83;1.50;;;;;;;;;;5026939;28;20214;-77
2023/07/23 08:47:12;;;;;;;1.70;1.60;;;;;;;;;;5025597;28;20209;-76
2023/07/23 08:49:40;;;;;;;2.50;1.77;;;;;;;;;;5024271;28;20240;-78
2023/07/23 08:52:07;;;;;;;3.63;1.40;;;;;;;;;;5021989;28;20310;-79
2023/07/23 08:54:33;;;;;;;1.70;1.40;;;;;;;;;;5024554;28;20213;-76
2023/07/23 08:56:59;;;;;;;2.03;1.60;;;;;;;;;;5028900;28;20210;-78
2023/07/23 08:59:27;;;;;;;1.80;1.70;;;;;;;;;;5026150;28;20263;-76
2023/07/23 09:01:53;;;;;;;2.20;1.77;;;;;;;;;;5024736;28;20195;-76
2023/07/23 09:04:20;;;;;;;2.73;1.87;;;;;;;;;;5021820;28;20190;-77
2023/07/23 09:06:46;;;;;;;1.57;1.47;;;;;;;;;;5026555;28;20764;-76
2023/07/23 09:09:13;;;;;;;1.60;1.50;;;;;;;;;;5025211;28;20206;-79
2023/07/23 09:11:40;;;;;;;2.70;1.40;;;;;;;;;;5021160;28;20202;-77
2023/07/23 09:14:07;;;;;;;4.03;1.60;;;;;;;;;;5014501;28;20565;-76
2023/07/23 09:16:38;;;;;;;3.03;1.70;;;;;;;;;;5028744;28;21164;-76
2023/07/23 09:19:04;;;;;;;3.03;1.60;;;;;;;;;;5023596;28;20202;-77
2023/07/23 09:21:30;;;;;;;1.83;1.57;;;;;;;;;;5025599;28;20183;-77
2023/07/23 09:23:57;;;;;;;1.87;1.50;;;;;;;;;;5022996;28;20185;-79
2023/07/23 09:26:24;;;;;;;3.80;1.50;;;;;;;;;;5027409;28;20209;-79
2023/07/23 09:28:52;;;;;;;1.70;1.60;;;;;;;;;;5027216;28;20694;-78
2023/07/23 09:31:23;;;;;;;2.40;1.50;;;;;;;;;;5027309;28;20645;-79
2023/07/23 09:33:51;;;;;;;2.27;1.60;;;;;;;;;;5026670;28;20205;-78
2023/07/23 09:36:20;;;;;;;1.67;1.50;;;;;;;;;;5012007;28;20180;-78
2023/07/23 09:39:07;;;;;;;1.70;1.60;;;;;;;;;;5026186;28;20693;-78
2023/07/23 09:41:38;;;;;;;1.57;1.47;;;;;;;;;;5025450;28;20221;-78
2023/07/23 09:44:04;;;;;;;1.73;1.57;;;;;;;;;;5024922;28;20190;-78
2023/07/23 09:46:31;;;;;;;2.17;1.53;;;;;;;;;;5024765;28;20748;-78
2023/07/23 09:48:57;;;;;;;1.90;1.70;;;;;;;;;;5008438;28;20721;-78
2023/07/23 09:51:23;;;;;;;4.23;1.70;;;;;;;;;;5027125;28;20274;-78
2023/07/23 09:53:49;;;;;;;3.83;1.80;;;;;;;;;;5028609;28;20245;-78
2023/07/23 09:56:16;;;;;;;2.37;1.70;;;;;;;;;;5009049;28;20240;-77
2023/07/23 09:58:43;;;;;;;1.93;1.50;;;;;;;;;;5028311;28;20282;-78
2023/07/23 10:01:10;;;;;;;1.90;1.70;;;;;;;;;;5026988;28;20264;-78
2023/07/23 10:03:36;;;;;;;1.73;1.50;;;;;;;;;;5024825;28;20183;-78
2023/07/23 10:06:03;;;;;;;3.97;1.87;;;;;;;;;;5027439;28;20686;-78
2023/07/23 10:08:31;;;;;;;2.90;1.80;;;;;;;;;;5026905;28;20197;-79
2023/07/23 10:10:57;;;;;;;1.60;1.50;;;;;;;;;;5027310;28;20190;-78
2023/07/23 10:13:23;;;;;;;1.80;1.70;;;;;;;;;;5028250;28;20268;-78
2023/07/23 10:15:51;;;;;;;2.20;1.80;;;;;;;;;;5025842;28;20201;-78
2023/07/23 10:18:18;;;;;;;2.90;1.50;;;;;;;;;;5009318;28;20649;-79
2023/07/23 10:20:45;;;;;;;3.13;1.60;;;;;;;;;;5021866;28;20194;-78
2023/07/23 10:23:12;;;;;;;3.00;1.80;;;;;;;;;;5025157;28;20182;-80
2023/07/23 10:25:38;;;;;;;2.63;1.50;;;;;;;;;;5029085;28;20389;-79
2023/07/23 10:28:05;;;;;;;4.33;1.50;;;;;;;;;;5026424;28;20648;-79
2023/07/23 10:30:33;;;;;;;2.53;1.77;;;;;;;;;;5033844;28;20218;-80
2023/07/23 10:33:08;;;;;;;1.87;1.77;;;;;;;;;;5028804;28;20251;-79
2023/07/23 10:35:53;;;;;;;2.17;1.60;;;;;;;;;;5027401;28;20691;-77
2023/07/23 10:38:20;;;;;;;3.07;1.70;;;;;;;;;;5022082;28;20183;-79
2023/07/23 10:40:47;;;;;;;2.77;1.70;;;;;;;;;;5010096;28;20273;-79
2023/07/23 10:43:13;;;;;;;2.27;1.60;;;;;;;;;;5027539;28;20187;-78
2023/07/23 10:45:45;;;;;;;1.93;1.70;;;;;;;;;;5028634;28;20758;-79
2023/07/23 10:48:16;;;;;;;2.00;1.53;;;;;;;;;;5025266;28;20674;-80
2023/07/23 10:50:42;;;;;;;2.17;1.70;;;;;;;;;;5070908;22;20229;-78
2023/07/23 10:53:08;;;;;;;1.90;1.80;;;;;;;;;;5071334;28;20181;-77
2023/07/23 10:55:45;;;;;;;2.30;1.67;;;;;;;;;;5069103;28;20190;-77
2023/07/23 10:58:12;;;;;;;3.17;1.83;;;;;;;;;;5050778;28;20184;-78
2023/07/23 11:00:48;;;;;;;2.60;1.60;;;;;;;;;;5068323;28;20722;-77
2023/07/23 11:03:18;;;;;;;4.03;1.50;;;;;;;;;;5069307;28;20193;-77
2023/07/23 11:05:44;;;;;;;2.20;1.70;;;;;;;;;;5056977;28;20292;-76
2023/07/23 11:08:14;;;;;;;1.73;1.63;;;;;;;;;;5069736;28;20188;-78
2023/07/23 11:10:49;;;;;;;1.90;1.80;;;;;;;;;;5064806;28;20216;-75
2023/07/23 11:13:16;;;;;;;3.70;1.60;;;;;;;;;;5061854;28;20264;-75
2023/07/23 11:15:42;;;;;;;9.40;1.90;;;;;;;;;;5041929;28;20193;-74
2023/07/23 11:18:09;;;;;;;4.37;1.80;;;;;;;;;;5042115;28;21511;-72
2023/07/23 11:20:36;;;;;;;4.33;1.77;;;;;;;;;;5056941;28;20205;-73
2023/07/23 11:23:05;;;;;;;3.30;2.00;;;;;;;;;;5058490;28;20251;-72
2023/07/23 11:25:31;;;;;;;2.33;1.70;;;;;;;;;;5059558;28;20826;-72
2023/07/23 11:27:57;;;;;;;3.07;1.67;;;;;;;;;;5059459;28;20948;-74
2023/07/23 11:30:23;;;;;;;3.63;1.73;;;;;;;;;;5060997;28;20195;-73
2023/07/23 11:32:49;;;;;;;2.13;1.57;;;;;;;;;;5058388;28;20194;-73
2023/07/23 11:35:16;;;;;;;2.00;1.70;;;;;;;;;;5058525;28;20193;-73
2023/07/23 11:37:49;;;;;;;5.80;2.00;;;;;;;;;;5059948;28;20177;-72
2023/07/23 11:40:22;;;;;;;5.47;1.97;;;;;;;;;;5060037;28;20205;-73
2023/07/23 11:42:48;;;;;;;2.10;1.90;;;;;;;;;;5039652;28;20182;-73
2023/07/23 11:45:14;;;;;;;2.23;1.90;;;;;;;;;;5025381;28;20403;-72
2023/07/23 11:47:51;;;;;;;2.50;1.73;;;;;;;;;;5059070;28;20229;-73
2023/07/23 11:50:17;;;;;;;3.20;1.97;;;;;;;;;;5052888;28;20303;-73
2023/07/23 11:52:44;;;;;;;3.70;1.77;;;;;;;;;;5058740;28;20192;-72
2023/07/23 11:55:21;;;;;;;3.60;1.90;;;;;;;;;;5059016;28;20181;-72
2023/07/23 11:57:57;;;;;;;2.40;2.20;;;;;;;;;;5057494;28;20719;-73
2023/07/23 12:00:25;;;;;;;3.43;2.00;;;;;;;;;;5055192;28;20205;-75
2023/07/23 12:02:51;;;;;;;5.80;1.80;;;;;;;;;;5032567;28;20714;-73
2023/07/23 12:05:18;;;;;;;3.50;1.60;;;;;;;;;;5044627;28;20189;-74
2023/07/23 12:07:44;;;;;;;4.10;2.00;;;;;;;;;;5031453;28;20170;-74
2023/07/23 12:10:12;;;;;;;3.50;1.90;;;;;;;;;;5047691;28;20206;-78
2023/07/23 12:12:39;;;;;;;4.57;1.90;;;;;;;;;;5055617;28;20849;-74
2023/07/23 12:15:05;;;;;;;3.43;2.00;;;;;;;;;;5056868;28;20268;-75
2023/07/23 12:17:31;;;;;;;2.90;2.00;;;;;;;;;;5037776;28;20244;-74
2023/07/23 12:19:57;;;;;;;2.50;2.23;;;;;;;;;;5049397;28;20942;-74
2023/07/23 12:22:24;;;;;;;3.23;1.80;;;;;;;;;;5050936;28;20767;-74
2023/07/23 12:24:50;;;;;;;2.43;1.80;;;;;;;;;;5057760;28;20189;-73
2023/07/23 12:27:17;;;;;;;2.93;1.87;;;;;;;;;;5059568;28;20217;-74
2023/07/23 12:29:43;;;;;;;2.07;1.70;;;;;;;;;;5038626;28;20206;-74
2023/07/23 12:32:11;;;;;;;2.53;2.00;;;;;;;;;;5043141;28;20189;-81
2023/07/23 12:34:38;;;;;;;4.27;2.10;;;;;;;;;;5044248;28;20259;-78
2023/07/23 12:37:05;;;;;;;2.80;1.90;;;;;;;;;;5060199;28;20206;-75
2023/07/23 12:39:31;;;;;;;2.33;2.10;;;;;;;;;;5034347;28;20229;-79
2023/07/23 12:41:57;;;;;;;3.10;1.90;;;;;;;;;;5065677;28;20181;-76
2023/07/23 12:44:23;;;;;;;2.50;2.10;;;;;;;;;;5050183;28;20302;-76
2023/07/23 12:46:49;;;;;;;2.00;1.80;;;;;;;;;;5035360;28;20703;-78
2023/07/23 12:49:16;;;;;;;2.40;1.90;;;;;;;;;;5059882;28;20209;-80
2023/07/23 12:51:42;;;;;;;2.43;1.80;;;;;;;;;;5069057;28;20187;-79
2023/07/23 12:54:09;;;;;;;3.03;2.23;;;;;;;;;;5066282;28;20188;-79
2023/07/23 12:56:35;;;;;;;2.80;2.03;;;;;;;;;;5053167;28;20188;-79
2023/07/23 12:59:01;;;;;;;2.20;2.00;;;;;;;;;;5055014;28;20178;-79
2023/07/23 13:01:27;;;;;;;3.47;2.03;;;;;;;;;;5048348;28;20173;-79
2023/07/23 13:03:54;;;;;;;2.40;2.10;;;;;;;;;;5069906;28;20193;-79
2023/07/23 13:06:20;;;;;;;2.60;2.30;;;;;;;;;;5068264;28;20880;-79
2023/07/23 13:08:46;;;;;;;3.17;2.33;;;;;;;;;;5078721;28;20190;-81
2023/07/23 13:11:12;;;;;;;5.23;2.70;;;;;;;;;;5076083;28;20567;-79
2023/07/23 13:13:39;;;;;;;2.50;2.30;;;;;;;;;;5052875;28;20177;-79
2023/07/23 13:16:06;;;;;;;4.03;2.53;;;;;;;;;;5050823;28;20188;-79
2023/07/23 13:18:32;;;;;;;2.77;2.30;;;;;;;;;;5052458;28;20185;-79
2023/07/23 13:20:58;;;;;;;5.80;2.93;;;;;;;;;;5045948;28;20204;-79
2023/07/23 13:23:25;;;;;;;3.27;2.57;;;;;;;;;;5066216;28;20176;-79
2023/07/23 13:25:52;;;;;;;3.93;2.57;;;;;;;;;;5062931;28;20201;-80
2023/07/23 13:28:18;;;;;;;2.97;2.60;;;;;;;;;;5041670;28;20228;-79
2023/07/23 13:30:44;;;;;;;3.70;2.70;;;;;;;;;;5066659;28;20196;-79
2023/07/23 13:33:11;;;;;;;3.07;2.60;;;;;;;;;;5050474;28;20251;-83
2023/07/23 13:35:38;;;;;;;4.33;2.70;;;;;;;;;;5045856;28;20193;-78
2023/07/23 13:38:04;;;;;;;2.93;2.63;;;;;;;;;;5043555;28;20270;-78
2023/07/23 13:40:30;;;;;;;2.90;2.67;;;;;;;;;;5043370;28;20227;-78
2023/07/23 13:42:57;;;;;;;3.37;2.50;;;;;;;;;;5010544;28;21023;-79
2023/07/23 13:45:23;;;;;;;3.17;2.67;;;;;;;;;;5059616;28;20204;-78
2023/07/23 13:47:49;;;;;;;2.97;2.70;;;;;;;;;;5043271;28;20708;-79
2023/07/23 13:50:16;;;;;;;3.13;2.80;;;;;;;;;;5039546;28;20262;-79
2023/07/23 13:52:42;;;;;;;2.83;2.63;;;;;;;;;;5044777;28;21625;-79
2023/07/23 13:55:08;;;;;;;2.43;2.20;;;;;;;;;;5044707;28;20258;-78
2023/07/23 13:57:34;;;;;;;2.90;2.70;;;;;;;;;;5061491;28;20238;-78
2023/07/23 14:00:03;;;;;;;2.80;2.47;;;;;;;;;;5050251;28;20219;-78
2023/07/23 14:02:42;;;;;;;2.70;2.50;;;;;;;;;;5067282;28;20722;-79
2023/07/23 14:05:12;;;;;;;3.10;2.37;;;;;;;;;;5065276;28;20187;-79
2023/07/23 14:07:39;;;;;;;2.90;2.67;;;;;;;;;;5051647;28;20487;-79
2023/07/23 14:10:06;;;;;;;2.87;2.67;;;;;;;;;;5046891;28;20269;-78
2023/07/23 14:12:33;;;;;;;3.10;2.80;;;;;;;;;;5050657;28;20191;-78
2023/07/23 14:15:00;;;;;;;2.70;2.50;;;;;;;;;;5065467;28;20202;-78
2023/07/23 14:17:26;;;;;;;4.20;2.77;;;;;;;;;;5027663;28;20186;-79
2023/07/23 14:19:52;;;;;;;3.10;2.60;;;;;;;;;;5068638;28;20290;-79
2023/07/23 14:22:18;;;;;;;2.97;2.60;;;;;;;;;;5056038;28;20588;-79
2023/07/23 14:24:44;;;;;;;2.70;2.50;;;;;;;;;;5074340;28;20181;-78
2023/07/23 14:27:11;;;;;;;3.20;2.90;;;;;;;;;;5049120;28;20272;-79
2023/07/23 14:29:37;;;;;;;2.90;2.70;;;;;;;;;;5069769;28;20242;-79
2023/07/23 14:32:03;;;;;;;3.77;2.70;;;;;;;;;;5053851;28;20227;-79
2023/07/23 14:34:30;;;;;;;2.77;2.50;;;;;;;;;;5052132;28;20185;-79
2023/07/23 14:36:56;;;;;;;3.30;2.60;;;;;;;;;;5056177;28;20185;-79
2023/07/23 14:39:23;;;;;;;2.70;2.50;;;;;;;;;;5075098;28;20613;-79
2023/07/23 14:41:49;;;;;;;3.60;2.60;;;;;;;;;;5072373;28;20193;-79